createdAt,value
2023-01-13T00:00:38.516Z,101095.16
2023-01-13T00:03:06.946Z,101078.81
2023-01-13T00:05:35.821Z,101076.75
2023-01-13T00:08:06.395Z,101079.47
2023-01-13T00:10:34.979Z,101062.72
2023-01-13T00:13:05.607Z,101054.00
2023-01-13T00:15:35.177Z,101083.91
2023-01-13T00:18:03.519Z,101073.53
2023-01-13T00:20:32.025Z,101086.09
2023-01-13T00:23:01.497Z,101070.59
2023-01-13T00:25:29.761Z,101086.25
2023-01-13T00:27:58.085Z,101077.72
2023-01-13T00:30:27.783Z,101069.94
2023-01-13T00:32:56.060Z,101048.88
2023-01-13T00:35:24.380Z,101060.75
2023-01-13T00:37:52.675Z,101065.16
2023-01-13T00:40:21.118Z,101070.25
2023-01-13T00:43:06.660Z,101058.34
2023-01-13T00:45:36.839Z,101058.50
2023-01-13T00:48:05.274Z,101065.66
2023-01-13T00:50:34.795Z,101062.25
2023-01-13T00:53:03.302Z,101069.88
2023-01-13T00:55:33.103Z,101051.84
2023-01-13T00:58:03.800Z,101062.94
2023-01-13T01:00:32.304Z,101060.69
2023-01-13T01:03:02.084Z,101046.91
2023-01-13T01:05:30.486Z,101038.91
2023-01-13T01:07:58.741Z,101040.63
2023-01-13T01:10:27.307Z,101038.06
2023-01-13T01:12:55.645Z,101036.88
2023-01-13T01:15:23.966Z,101037.69
2023-01-13T01:17:53.201Z,101038.91
2023-01-13T01:20:23.067Z,101041.09
2023-01-13T01:22:51.770Z,101049.09
2023-01-13T01:25:20.058Z,101037.16
2023-01-13T01:27:48.437Z,101037.84
2023-01-13T01:30:17.015Z,101034.44
2023-01-13T01:32:45.303Z,101037.84
2023-01-13T01:35:13.699Z,101037.53
2023-01-13T01:37:43.430Z,101030.06
2023-01-13T01:40:13.010Z,101030.53
2023-01-13T01:42:58.712Z,101026.97
2023-01-13T01:45:30.654Z,101017.47
2023-01-13T01:48:02.533Z,101008.69
2023-01-13T01:50:31.483Z,101010.78
2023-01-13T01:53:04.580Z,101007.44
2023-01-13T01:55:37.014Z,101003.47
2023-01-13T01:58:09.393Z,101014.00
2023-01-13T02:00:37.915Z,101011.97
2023-01-13T02:03:07.353Z,101024.88
2023-01-13T02:05:35.906Z,101011.09
2023-01-13T02:08:05.845Z,101019.44
2023-01-13T02:10:34.275Z,101009.22
2023-01-13T02:13:05.018Z,100996.84
2023-01-13T02:15:39.354Z,101002.28
2023-01-13T02:18:20.701Z,100997.66
2023-01-13T02:20:59.793Z,101010.09
2023-01-13T02:24:15.078Z,100991.25
2023-01-13T02:27:27.498Z,100988.13
2023-01-13T02:30:26.641Z,100996.34
2023-01-13T02:33:04.956Z,100969.19
2023-01-13T02:35:38.655Z,100984.06
2023-01-13T02:38:07.179Z,100982.56
2023-01-13T02:40:38.322Z,100980.84
2023-01-13T02:43:27.109Z,100980.38
2023-01-13T02:46:02.050Z,100984.97
2023-01-13T02:48:31.660Z,100977.97
2023-01-13T02:51:02.096Z,100985.28
2023-01-13T02:53:34.712Z,100986.78
2023-01-13T02:56:05.426Z,100988.84
2023-01-13T02:58:36.430Z,100987.63
2023-01-13T03:01:06.550Z,100992.22
2023-01-13T03:03:36.721Z,100997.88
2023-01-13T03:06:12.906Z,100982.56
2023-01-13T03:08:48.002Z,100977.59
2023-01-13T03:11:17.945Z,100981.34
2023-01-13T03:14:12.514Z,100975.88
2023-01-13T03:16:51.955Z,100979.66
2023-01-13T03:19:28.320Z,100986.44
2023-01-13T03:21:59.764Z,100980.13
2023-01-13T03:24:33.420Z,100977.09
2023-01-13T03:27:06.200Z,100980.50
2023-01-13T03:29:37.199Z,100983.03
2023-01-13T03:32:09.775Z,100959.94
2023-01-13T03:34:41.491Z,100968.78
2023-01-13T03:37:10.070Z,100968.09
2023-01-13T03:39:41.418Z,100964.34
2023-01-13T03:42:12.083Z,100967.56
2023-01-13T03:44:43.320Z,100965.84
2023-01-13T03:47:19.391Z,100972.16
2023-01-13T03:49:54.631Z,100970.44
2023-01-13T03:52:26.522Z,100975.88
2023-01-13T03:54:57.821Z,100976.94
2023-01-13T03:57:30.252Z,100972.16
2023-01-13T04:00:02.329Z,100973.47
2023-01-13T04:02:41.460Z,100965.69
2023-01-13T04:05:12.062Z,100976.19
2023-01-13T04:07:47.969Z,100965.13
2023-01-13T04:10:19.908Z,100965.97
2023-01-13T04:13:05.051Z,100964.66
2023-01-13T04:15:37.476Z,100972.16
2023-01-13T04:18:28.444Z,100972.53
2023-01-13T04:20:59.379Z,100984.44
2023-01-13T04:23:29.192Z,100977.59
2023-01-13T04:25:58.472Z,100959.31
2023-01-13T04:28:27.829Z,100987.16
2023-01-13T04:30:56.153Z,100987.81
2023-01-13T04:33:24.475Z,100991.19
2023-01-13T04:35:55.287Z,100993.28
2023-01-13T04:38:23.649Z,100982.72
2023-01-13T04:40:51.999Z,100984.44
2023-01-13T04:43:20.379Z,100979.66
2023-01-13T04:45:48.679Z,100987.53
2023-01-13T04:48:17.068Z,100972.22
2023-01-13T04:50:45.776Z,100976.16
2023-01-13T04:53:16.046Z,100970.16
2023-01-13T04:55:45.500Z,100980.00
2023-01-13T04:58:13.824Z,100962.63
2023-01-13T05:00:42.882Z,100982.06
2023-01-13T05:03:11.320Z,100971.19
2023-01-13T05:05:39.614Z,100981.59
2023-01-13T05:08:09.189Z,100986.19
2023-01-13T05:10:38.979Z,100969.88
2023-01-13T05:13:24.808Z,100973.97
2023-01-13T05:16:11.400Z,100969.38
2023-01-13T05:18:39.845Z,100979.03
2023-01-13T05:21:28.963Z,100986.19
2023-01-13T05:24:15.367Z,100983.09
2023-01-13T05:26:45.101Z,100985.66
2023-01-13T05:29:13.424Z,100981.59
2023-01-13T05:31:42.112Z,100992.97
2023-01-13T05:34:10.439Z,100991.75
2023-01-13T05:36:38.741Z,100989.22
2023-01-13T05:39:07.089Z,100984.88
2023-01-13T05:41:52.540Z,100991.41
2023-01-13T05:44:22.175Z,100996.78
2023-01-13T05:46:50.467Z,100999.03
2023-01-13T05:49:18.781Z,100988.47
2023-01-13T05:51:47.062Z,100988.69
2023-01-13T05:54:16.049Z,100990.84
2023-01-13T05:56:44.385Z,100999.38
2023-01-13T05:59:12.749Z,100992.59
2023-01-13T06:01:42.518Z,101002.47
2023-01-13T06:04:10.888Z,100997.31
2023-01-13T06:06:39.261Z,100990.19
2023-01-13T06:09:07.556Z,100994.78
2023-01-13T06:11:35.897Z,101000.91
2023-01-13T06:14:04.151Z,101007.84
2023-01-13T06:16:32.545Z,101019.75
2023-01-13T06:19:02.634Z,101018.72
2023-01-13T06:21:33.199Z,101013.28
2023-01-13T06:24:02.031Z,101019.41
2023-01-13T06:26:32.009Z,101023.53
2023-01-13T06:29:00.329Z,101022.59
2023-01-13T06:31:28.849Z,101018.00
2023-01-13T06:33:59.223Z,101011.09
2023-01-13T06:36:32.052Z,101018.34
2023-01-13T06:39:03.925Z,101015.56
2023-01-13T06:41:47.667Z,101010.81
2023-01-13T06:44:16.176Z,101016.56
2023-01-13T06:46:44.609Z,101021.84
2023-01-13T06:49:12.979Z,101022.38
2023-01-13T06:51:42.713Z,101014.91
2023-01-13T06:54:11.103Z,101010.88
2023-01-13T06:56:40.041Z,101011.16
2023-01-13T06:59:08.415Z,100990.78
2023-01-13T07:01:36.731Z,101018.78
2023-01-13T07:04:05.926Z,101015.41
2023-01-13T07:06:34.334Z,101007.13
2023-01-13T07:09:06.008Z,101004.75
2023-01-13T07:11:35.176Z,100998.44
2023-01-13T07:14:21.058Z,100987.88
2023-01-13T07:16:49.481Z,100999.59
2023-01-13T07:19:23.342Z,100994.91
2023-01-13T07:21:52.987Z,101002.88
2023-01-13T07:24:23.075Z,101005.06
2023-01-13T07:26:52.786Z,101009.53
2023-01-13T07:29:21.499Z,101007.13
2023-01-13T07:31:50.476Z,101000.44
2023-01-13T07:34:19.148Z,100999.59
2023-01-13T07:36:47.408Z,101003.59
2023-01-13T07:39:15.805Z,101004.81
2023-01-13T07:42:02.784Z,101000.22
2023-01-13T07:44:32.903Z,101002.88
2023-01-13T07:47:01.221Z,100995.72
2023-01-13T07:49:29.672Z,100997.03
2023-01-13T07:51:57.962Z,101012.66
2023-01-13T07:54:39.695Z,101006.22
2023-01-13T07:57:10.858Z,101011.69
2023-01-13T07:59:39.210Z,101005.75
2023-01-13T08:02:07.975Z,101008.78
2023-01-13T08:04:36.849Z,101017.34
2023-01-13T08:07:06.449Z,101008.91
2023-01-13T08:09:34.922Z,101001.09
2023-01-13T08:12:20.695Z,101011.09
2023-01-13T08:14:51.863Z,101017.72
2023-01-13T08:17:20.709Z,101015.56
2023-01-13T08:19:49.308Z,101016.41
2023-01-13T08:22:17.669Z,101010.41
2023-01-13T08:24:45.966Z,101017.72
2023-01-13T08:27:15.063Z,101016.03
2023-01-13T08:29:43.391Z,100996.25
2023-01-13T08:32:13.112Z,101000.28
2023-01-13T08:34:41.799Z,101004.59
2023-01-13T08:37:10.304Z,100998.22
2023-01-13T08:39:39.080Z,101001.91
2023-01-13T08:42:07.548Z,100997.00
2023-01-13T08:44:36.055Z,101000.75
2023-01-13T08:47:04.856Z,100997.38
2023-01-13T08:49:34.680Z,101004.63
2023-01-13T08:52:03.089Z,100997.38
2023-01-13T08:54:31.413Z,100998.50
2023-01-13T08:56:59.817Z,101003.31
2023-01-13T08:59:29.076Z,100992.19
2023-01-13T09:01:57.760Z,100990.53
2023-01-13T09:04:28.003Z,101002.03
2023-01-13T09:06:58.459Z,100993.38
2023-01-13T09:09:27.955Z,100982.94
2023-01-13T09:12:13.399Z,100987.44
2023-01-13T09:14:41.812Z,100986.41
2023-01-13T09:17:10.157Z,100989.22
2023-01-13T09:19:38.796Z,100981.53
2023-01-13T09:22:11.058Z,100976.94
2023-01-13T09:24:39.373Z,100971.19
2023-01-13T09:27:07.717Z,100974.03
2023-01-13T09:29:36.708Z,100975.34
2023-01-13T09:32:05.344Z,100978.31
2023-01-13T09:34:51.194Z,100981.34
2023-01-13T09:37:20.915Z,100963.94
2023-01-13T09:39:49.329Z,100962.13
2023-01-13T09:42:39.635Z,100956.22
2023-01-13T09:45:10.944Z,100949.75
2023-01-13T09:47:44.193Z,100951.78
2023-01-13T09:50:22.491Z,100952.75
2023-01-13T09:52:52.383Z,100945.25
2023-01-13T09:55:24.816Z,100956.16
2023-01-13T09:57:53.135Z,100936.78
2023-01-13T10:00:23.740Z,100919.97
2023-01-13T10:03:15.759Z,100942.13
2023-01-13T10:05:46.008Z,100947.41
2023-01-13T10:08:25.188Z,100942.69
2023-01-13T10:10:56.424Z,100951.91
2023-01-13T10:13:25.738Z,100949.94
2023-01-13T10:16:07.065Z,100948.44
2023-01-13T10:18:42.404Z,100954.94
2023-01-13T10:21:23.152Z,100946.19
2023-01-13T10:23:58.644Z,100937.19
2023-01-13T10:26:38.210Z,100939.69
2023-01-13T10:29:20.020Z,100944.13
2023-01-13T10:31:49.085Z,100934.63
2023-01-13T10:34:17.687Z,100945.72
2023-01-13T10:36:58.151Z,100949.56
2023-01-13T10:39:28.602Z,100939.00
2023-01-13T10:42:04.316Z,100936.84
2023-01-13T10:44:32.628Z,100942.97
2023-01-13T10:47:01.105Z,100936.13
2023-01-13T10:49:33.274Z,100930.72
2023-01-13T10:52:02.377Z,100935.81
2023-01-13T10:54:33.119Z,100944.47
2023-01-13T10:57:20.971Z,100947.75
2023-01-13T10:59:49.645Z,100935.81
2023-01-13T11:02:26.195Z,100913.66
2023-01-13T11:05:03.355Z,100943.72
2023-01-13T11:07:35.487Z,100943.25
2023-01-13T11:10:12.910Z,100957.66
2023-01-13T11:12:47.266Z,100955.28
2023-01-13T11:15:18.829Z,100953.78
2023-01-13T11:17:50.071Z,100962.53
2023-01-13T11:20:21.104Z,100958.38
2023-01-13T11:22:51.420Z,100957.53
2023-01-13T11:25:24.195Z,100967.78
2023-01-13T11:27:57.697Z,100960.66
2023-01-13T11:30:32.031Z,100966.38
2023-01-13T11:33:26.063Z,100971.81
2023-01-13T11:36:03.289Z,100970.78
2023-01-13T11:38:35.719Z,100969.88
2023-01-13T11:41:10.121Z,100977.38
2023-01-13T11:43:43.661Z,100960.09
2023-01-13T11:46:12.728Z,100960.56
2023-01-13T11:48:43.666Z,100968.09
2023-01-13T11:51:22.014Z,100948.81
2023-01-13T11:54:00.258Z,100972.97
2023-01-13T11:56:42.331Z,100971.16
2023-01-13T11:59:19.741Z,100960.09
2023-01-13T12:01:58.776Z,100953.50
2023-01-13T12:04:29.608Z,100938.16
2023-01-13T12:07:13.007Z,100956.00
2023-01-13T12:09:49.107Z,100960.53
2023-01-13T12:12:27.869Z,100963.63
2023-01-13T12:15:35.929Z,100968.72
2023-01-13T12:18:27.039Z,100959.31
2023-01-13T12:21:05.688Z,100960.81
2023-01-13T12:23:36.873Z,100962.88
2023-01-13T12:26:08.720Z,100972.19
2023-01-13T12:28:45.175Z,100963.44
2023-01-13T12:31:14.976Z,100963.84
2023-01-13T12:33:52.991Z,100960.47
2023-01-13T12:36:28.077Z,100969.88
2023-01-13T12:38:59.994Z,100974.66
2023-01-13T12:41:59.534Z,100986.63
2023-01-13T12:44:30.596Z,100981.50
2023-01-13T12:46:59.901Z,100982.47
2023-01-13T12:49:30.987Z,100983.09
2023-01-13T12:52:15.066Z,100978.91
2023-01-13T12:55:14.798Z,100980.50
2023-01-13T12:58:15.456Z,100977.38
2023-01-13T13:01:00.313Z,100984.53
2023-01-13T13:03:34.375Z,100987.94
2023-01-13T13:06:07.064Z,100976.53
2023-01-13T13:08:46.328Z,100981.16
2023-01-13T13:11:41.461Z,100986.63
2023-01-13T13:14:13.619Z,100995.81
2023-01-13T13:16:52.418Z,100990.94
2023-01-13T13:19:47.368Z,100994.50
2023-01-13T13:22:24.220Z,100988.66
2023-01-13T13:25:27.485Z,100990.38
2023-01-13T13:28:04.797Z,100980.19
2023-01-13T13:30:37.073Z,100997.41
2023-01-13T13:33:20.843Z,100998.84
2023-01-13T13:35:57.502Z,100999.19
2023-01-13T13:39:03.709Z,101003.22
2023-01-13T13:41:49.167Z,101001.75
2023-01-13T13:44:50.141Z,101007.28
2023-01-13T13:47:18.567Z,101004.09
2023-01-13T13:49:53.216Z,101001.81
2023-01-13T13:52:26.739Z,101004.75
2023-01-13T13:54:58.406Z,101011.16
2023-01-13T13:57:32.057Z,101003.22
2023-01-13T14:00:01.428Z,101013.50
2023-01-13T14:02:31.450Z,101003.91
2023-01-13T14:05:18.244Z,101007.28
2023-01-13T14:07:47.966Z,101008.13
2023-01-13T14:10:21.130Z,101009.81
2023-01-13T14:12:49.230Z,101018.19
2023-01-13T14:15:44.412Z,101005.22
2023-01-13T14:18:16.825Z,101015.75
2023-01-13T14:20:53.962Z,101014.06
2023-01-13T14:23:27.127Z,101017.44
2023-01-13T14:25:56.102Z,101014.72
2023-01-13T14:28:28.326Z,101010.28
2023-01-13T14:30:58.048Z,101013.69
2023-01-13T14:33:35.457Z,101007.28
2023-01-13T14:36:18.169Z,101009.91
2023-01-13T14:38:48.311Z,101005.09
2023-01-13T14:41:23.525Z,101006.03
2023-01-13T14:43:54.304Z,101000.38
2023-01-13T14:46:25.733Z,101001.63
2023-01-13T14:49:01.532Z,101007.09
2023-01-13T14:51:32.484Z,101011.03
2023-01-13T14:54:00.832Z,101006.25
2023-01-13T14:56:41.071Z,101005.22
2023-01-13T14:59:34.715Z,101014.59
2023-01-13T15:02:04.055Z,101005.38
2023-01-13T15:04:39.576Z,101011.69
2023-01-13T15:07:20.959Z,101002.28
2023-01-13T15:09:49.762Z,101002.47
2023-01-13T15:12:22.664Z,101005.38
2023-01-13T15:14:54.265Z,100991.06
2023-01-13T15:17:22.838Z,101008.28
2023-01-13T15:19:51.218Z,101002.00
2023-01-13T15:22:24.864Z,101006.63
2023-01-13T15:24:56.453Z,101010.47
2023-01-13T15:31:01.258Z,101015.56
2023-01-13T15:33:41.473Z,101009.72
2023-01-13T15:36:19.630Z,101013.84
2023-01-13T15:38:50.053Z,101012.16
2023-01-13T15:41:38.503Z,101014.69
2023-01-13T15:44:23.942Z,101014.88
2023-01-13T15:46:53.164Z,101013.47
2023-01-13T15:49:26.908Z,101021.66
2023-01-13T15:51:55.243Z,101009.72
2023-01-13T15:54:25.547Z,101016.88
2023-01-13T15:56:54.547Z,101014.88
2023-01-13T15:59:24.823Z,101015.06
2023-01-13T16:01:53.110Z,101004.34
2023-01-13T16:04:21.460Z,101006.13
2023-01-13T16:06:49.849Z,101012.63
2023-01-13T16:09:18.131Z,101001.78
2023-01-13T16:11:47.848Z,101007.63
2023-01-13T16:14:16.263Z,101003.78
2023-01-13T16:16:44.654Z,100998.78
2023-01-13T16:19:13.794Z,101000.22
2023-01-13T16:21:42.204Z,100999.53
2023-01-13T16:24:10.548Z,100977.53
2023-01-13T16:26:39.886Z,100996.75
2023-01-13T16:29:12.851Z,100991.94
2023-01-13T16:31:41.282Z,101003.28
2023-01-13T16:34:09.594Z,100999.53
2023-01-13T16:36:38.278Z,100999.94
2023-01-13T16:39:19.604Z,100991.06
2023-01-13T16:41:47.975Z,100998.22
2023-01-13T16:44:17.747Z,100999.94
2023-01-13T16:46:47.490Z,100999.53
2023-01-13T16:49:17.352Z,101009.16
2023-01-13T16:51:45.666Z,101004.47
2023-01-13T16:54:14.412Z,101001.53
2023-01-13T16:56:43.456Z,100996.53
2023-01-13T16:59:14.851Z,100995.72
2023-01-13T17:01:46.073Z,100994.47
2023-01-13T17:04:17.272Z,100985.25
2023-01-13T17:06:52.878Z,100984.41
2023-01-13T17:09:23.501Z,100985.25
2023-01-13T17:11:52.171Z,100991.06
2023-01-13T17:14:23.347Z,100981.84
2023-01-13T17:16:54.723Z,100983.56
2023-01-13T17:19:23.583Z,100991.00
2023-01-13T17:21:52.238Z,100985.53
2023-01-13T17:24:20.681Z,100982.81
2023-01-13T17:26:50.983Z,100992.47
2023-01-13T17:29:22.069Z,100988.50
2023-01-13T17:31:50.751Z,100984.69
2023-01-13T17:34:21.369Z,100961.47
2023-01-13T17:36:50.340Z,100990.72
2023-01-13T17:39:19.896Z,100994.09
2023-01-13T17:41:48.581Z,100989.88
2023-01-13T17:44:18.475Z,100989.66
2023-01-13T17:46:47.330Z,100997.03
2023-01-13T17:49:16.779Z,100993.31
2023-01-13T17:51:50.706Z,100995.59
2023-01-13T17:54:20.311Z,100998.22
2023-01-13T17:56:48.915Z,100992.66
2023-01-13T17:59:19.268Z,100989.94
2023-01-13T18:01:47.913Z,100997.75
2023-01-13T18:04:17.049Z,100994.38
2023-01-13T18:06:48.013Z,100997.09
2023-01-13T18:09:17.064Z,100991.25
2023-01-13T18:11:47.235Z,100995.94
2023-01-13T18:14:15.957Z,101004.78
2023-01-13T18:16:44.605Z,101003.09
2023-01-13T18:19:30.454Z,100992.94
2023-01-13T18:22:17.706Z,101002.16
2023-01-13T18:25:03.335Z,100998.84
2023-01-13T18:27:34.527Z,101004.97
2023-01-13T18:30:04.320Z,100989.25
2023-01-13T18:32:34.939Z,100994.69
2023-01-13T18:35:07.059Z,100992.53
2023-01-13T18:37:38.837Z,100995.94
2023-01-13T18:40:12.036Z,100998.94
2023-01-13T18:42:54.489Z,100992.81
2023-01-13T18:45:25.577Z,100992.81
2023-01-13T18:47:54.919Z,100995.56
2023-01-13T18:50:23.638Z,100989.25
2023-01-13T18:52:53.613Z,100998.94
2023-01-13T18:55:22.781Z,100989.72
2023-01-13T18:57:51.400Z,100999.31
2023-01-13T19:00:22.126Z,100974.63
2023-01-13T19:05:35.814Z,100995.69
2023-01-13T19:08:06.108Z,101013.22
2023-01-13T19:10:34.486Z,101003.38
2023-01-13T19:13:02.956Z,100999.84
2023-01-13T19:15:31.404Z,100995.69
2023-01-13T19:17:59.809Z,100989.78
2023-01-13T19:20:28.249Z,100993.19
2023-01-13T19:22:56.545Z,100990.63
2023-01-13T19:25:26.431Z,100981.78
2023-01-13T19:27:54.910Z,100981.41
2023-01-13T19:30:23.548Z,100991.41
2023-01-13T19:32:52.564Z,100991.22
2023-01-13T19:35:23.298Z,100993.09
2023-01-13T19:37:52.288Z,100994.78
2023-01-13T19:40:20.897Z,100996.09
2023-01-13T19:43:07.640Z,100992.69
2023-01-13T19:45:36.507Z,100974.75
2023-01-13T19:48:05.962Z,100996.28
2023-01-13T19:50:37.676Z,101002.97
2023-01-13T19:53:06.347Z,100988.94
2023-01-13T19:55:34.792Z,100997.81
2023-01-13T19:58:04.739Z,100997.13
2023-01-13T20:00:34.425Z,100997.00
2023-01-13T20:03:08.203Z,101003.78
2023-01-13T20:05:36.571Z,101007.81
2023-01-13T20:08:04.962Z,100971.66
2023-01-13T20:10:33.583Z,101007.34
2023-01-13T20:13:02.225Z,101004.63
2023-01-13T20:15:32.483Z,100999.75
2023-01-13T20:18:00.992Z,101000.41
2023-01-13T20:20:29.286Z,100995.31
2023-01-13T20:22:58.296Z,100993.66
2023-01-13T20:25:28.852Z,100993.91
2023-01-13T20:27:58.660Z,100999.56
2023-01-13T20:30:27.526Z,100998.03
2023-01-13T20:32:57.960Z,101001.16
2023-01-13T20:35:29.916Z,101000.00
2023-01-13T20:37:58.368Z,100999.16
2023-01-13T20:40:26.713Z,101006.91
2023-01-13T20:42:54.800Z,101003.78
2023-01-13T20:45:23.609Z,101004.88
2023-01-13T20:47:51.879Z,100997.56
2023-01-13T20:50:22.098Z,100999.63
2023-01-13T20:52:52.772Z,101008.47
2023-01-13T20:55:21.273Z,101008.47
2023-01-13T20:57:50.600Z,101006.13
2023-01-13T21:00:20.214Z,101005.75
2023-01-13T21:02:48.615Z,101014.22
2023-01-13T21:05:17.764Z,101004.31
2023-01-13T21:07:47.705Z,101011.03
2023-01-13T21:10:16.233Z,101007.72
2023-01-13T21:13:01.990Z,101008.53
2023-01-13T21:15:30.431Z,101008.75
2023-01-13T21:18:15.947Z,101002.25
2023-01-13T21:20:44.322Z,101002.25
2023-01-13T21:23:14.051Z,100994.06
2023-01-13T21:25:42.555Z,100992.34
2023-01-13T21:28:12.337Z,100983.31
2023-01-13T21:30:41.203Z,100994.69
2023-01-13T21:33:11.980Z,101000.16
2023-01-13T21:35:40.955Z,100996.78
2023-01-13T21:38:10.494Z,100994.06
2023-01-13T21:40:40.327Z,100993.84
2023-01-13T21:43:30.097Z,100999.69
2023-01-13T21:46:30.305Z,100996.97
2023-01-13T21:48:58.727Z,100996.19
2023-01-13T21:51:27.070Z,100989.69
2023-01-13T21:53:55.974Z,100986.09
2023-01-13T21:56:26.182Z,100986.75
2023-01-13T21:58:56.239Z,100993.25
2023-01-13T22:01:24.863Z,100986.31
2023-01-13T22:04:10.109Z,100981.69
2023-01-13T22:06:39.092Z,100990.94
2023-01-13T22:09:07.774Z,100985.88
2023-01-13T22:11:37.583Z,100986.75
2023-01-13T22:14:09.549Z,100984.22
2023-01-13T22:16:40.002Z,100991.38
2023-01-13T22:19:09.451Z,100988.06
2023-01-13T22:21:38.018Z,100976.47
2023-01-13T22:24:06.710Z,100985.72
2023-01-13T22:26:35.415Z,100991.84
2023-01-13T22:29:05.339Z,100980.44
2023-01-13T22:31:33.817Z,100990.97
2023-01-13T22:34:02.166Z,100983.00
2023-01-13T22:36:30.518Z,100985.34
2023-01-13T22:39:00.765Z,100979.69
2023-01-13T22:41:29.623Z,100985.97
2023-01-13T22:43:57.944Z,100982.19
2023-01-13T22:46:27.873Z,100985.97
2023-01-13T22:48:56.269Z,100985.97
2023-01-13T22:51:25.256Z,100971.72
2023-01-13T22:53:53.718Z,100978.03
2023-01-13T22:56:24.699Z,100961.16
2023-01-13T22:58:55.300Z,100987.53
2023-01-13T23:01:24.396Z,100992.38
2023-01-13T23:03:54.666Z,100983.13
2023-01-13T23:06:25.096Z,100985.66
2023-01-13T23:08:53.623Z,100993.00
2023-01-13T23:11:24.761Z,100990.94
2023-01-13T23:13:58.776Z,100987.78
2023-01-13T23:16:27.983Z,100995.34
2023-01-13T23:18:57.962Z,100977.72
2023-01-13T23:21:27.826Z,100993.25
2023-01-13T23:23:58.833Z,100991.56
2023-01-13T23:26:27.544Z,100986.75
2023-01-13T23:29:00.010Z,100993.69
2023-01-13T23:31:28.692Z,100989.09
2023-01-13T23:33:58.411Z,100989.09
2023-01-13T23:36:28.556Z,100992.03
2023-01-13T23:38:57.047Z,100989.50
2023-01-13T23:41:26.809Z,100981.94
2023-01-13T23:43:56.426Z,100984.03
2023-01-13T23:46:25.024Z,100972.69
2023-01-13T23:48:55.479Z,100978.16
2023-01-13T23:51:26.374Z,100986.56
2023-01-13T23:53:55.457Z,100983.63
2023-01-13T23:56:25.482Z,100975.25
2023-01-13T23:58:54.117Z,100953.28
